createdAt,value
2022-11-17T00:00:25.612Z,7.50
2022-11-17T00:02:53.660Z,7.50
2022-11-17T00:05:21.627Z,7.50
2022-11-17T00:07:50.089Z,7.50
2022-11-17T00:10:19.144Z,7.50
2022-11-17T00:13:05.731Z,7.40
2022-11-17T00:15:33.911Z,7.50
2022-11-17T00:18:19.573Z,7.50
2022-11-17T00:21:04.754Z,7.50
2022-11-17T00:23:46.733Z,7.50
2022-11-17T00:26:16.504Z,7.50
2022-11-17T00:28:45.923Z,7.50
2022-11-17T00:31:31.938Z,7.40
2022-11-17T00:34:06.173Z,7.40
2022-11-17T00:36:37.287Z,7.40
2022-11-17T00:39:06.102Z,7.40
2022-11-17T00:41:34.209Z,7.40
2022-11-17T00:44:03.867Z,7.50
2022-11-17T00:46:32.211Z,7.40
2022-11-17T00:49:00.571Z,7.40
2022-11-17T00:51:28.770Z,7.40
2022-11-17T00:53:57.032Z,7.40
2022-11-17T00:56:25.525Z,7.40
2022-11-17T00:58:54.024Z,7.40
2022-11-17T01:01:24.104Z,7.40
2022-11-17T01:04:02.975Z,7.40
2022-11-17T01:06:33.176Z,7.40
2022-11-17T01:09:01.588Z,7.40
2022-11-17T01:11:29.731Z,7.40
2022-11-17T01:13:59.310Z,7.30
2022-11-17T01:16:29.925Z,7.30
2022-11-17T01:19:01.138Z,7.30
2022-11-17T01:21:30.037Z,7.30
2022-11-17T01:23:59.686Z,7.30
2022-11-17T01:26:29.923Z,7.30
2022-11-17T01:28:59.165Z,7.30
2022-11-17T01:31:31.383Z,7.30
2022-11-17T01:34:00.768Z,7.30
2022-11-17T01:36:30.175Z,7.30
2022-11-17T01:38:58.288Z,7.20
2022-11-17T01:41:28.829Z,7.20
2022-11-17T01:43:59.347Z,7.20
2022-11-17T01:46:34.454Z,7.20
2022-11-17T01:49:07.852Z,7.10
2022-11-17T01:51:38.744Z,7.20
2022-11-17T01:54:07.802Z,7.20
2022-11-17T01:56:41.600Z,7.10
2022-11-17T01:59:23.854Z,7.10
2022-11-17T02:01:57.595Z,7.10
2022-11-17T02:04:30.164Z,7.10
2022-11-17T02:07:02.927Z,7.10
2022-11-17T02:09:31.313Z,7.10
2022-11-17T02:12:00.488Z,7.10
2022-11-17T02:14:29.362Z,7.10
2022-11-17T02:17:06.293Z,7.10
2022-11-17T02:19:41.023Z,7.10
2022-11-17T02:22:34.855Z,7.00
2022-11-17T02:25:34.215Z,7.00
2022-11-17T02:28:12.365Z,7.00
2022-11-17T02:30:48.149Z,7.00
2022-11-17T02:33:26.916Z,7.00
2022-11-17T02:36:01.635Z,7.00
2022-11-17T02:38:35.891Z,7.00
2022-11-17T02:41:11.120Z,7.00
2022-11-17T02:44:04.043Z,7.00
2022-11-17T02:46:38.754Z,7.00
2022-11-17T02:49:11.358Z,7.00
2022-11-17T02:51:40.564Z,6.90
2022-11-17T02:54:09.547Z,6.90
2022-11-17T02:56:42.467Z,6.90
2022-11-17T02:59:14.797Z,6.90
2022-11-17T03:02:11.583Z,6.90
2022-11-17T03:04:47.965Z,6.90
2022-11-17T03:07:29.361Z,6.90
2022-11-17T03:10:04.833Z,6.90
2022-11-17T03:12:37.576Z,6.90
2022-11-17T03:15:15.064Z,7.00
2022-11-17T03:17:51.736Z,7.00
2022-11-17T03:20:23.251Z,7.00
2022-11-17T03:22:55.143Z,7.00
2022-11-17T03:25:24.755Z,7.00
2022-11-17T03:27:57.467Z,7.00
2022-11-17T03:30:31.989Z,7.00
2022-11-17T03:33:09.154Z,7.00
2022-11-17T03:35:47.800Z,7.00
2022-11-17T03:38:22.326Z,7.00
2022-11-17T03:40:51.990Z,7.00
2022-11-17T03:43:21.943Z,7.00
2022-11-17T03:45:54.058Z,7.00
2022-11-17T03:48:27.847Z,7.00
2022-11-17T03:51:00.885Z,7.00
2022-11-17T03:53:30.622Z,7.00
2022-11-17T03:56:03.880Z,7.00
2022-11-17T03:58:36.194Z,7.00
2022-11-17T04:01:07.132Z,7.00
2022-11-17T04:03:35.463Z,7.00
2022-11-17T04:06:03.697Z,7.00
2022-11-17T04:08:31.938Z,7.00
2022-11-17T04:11:17.310Z,7.00
2022-11-17T04:14:02.847Z,7.00
2022-11-17T04:16:32.174Z,7.00
2022-11-17T04:19:00.417Z,7.00
2022-11-17T04:21:28.516Z,7.00
2022-11-17T04:23:57.998Z,7.10
2022-11-17T04:26:43.614Z,7.10
2022-11-17T04:29:11.595Z,7.00
2022-11-17T04:31:40.914Z,7.00
2022-11-17T04:34:09.154Z,7.00
2022-11-17T04:36:40.633Z,7.00
2022-11-17T04:39:08.571Z,7.00
2022-11-17T04:41:54.169Z,6.90
2022-11-17T04:44:23.914Z,6.90
2022-11-17T04:46:54.771Z,6.90
2022-11-17T04:49:24.812Z,6.90
2022-11-17T04:51:53.696Z,6.90
2022-11-17T04:54:24.149Z,6.90
2022-11-17T04:56:53.048Z,6.90
2022-11-17T04:59:21.002Z,6.90
2022-11-17T05:01:49.408Z,6.90
2022-11-17T05:04:41.288Z,6.80
2022-11-17T05:07:10.089Z,6.80
2022-11-17T05:09:38.122Z,6.90
2022-11-17T05:12:24.195Z,6.90
2022-11-17T05:14:52.430Z,6.90
2022-11-17T05:17:19.472Z,6.90
2022-11-17T05:19:49.529Z,6.80
2022-11-17T05:22:36.703Z,6.80
2022-11-17T05:25:05.723Z,6.80
2022-11-17T05:27:34.337Z,6.70
2022-11-17T05:30:02.539Z,6.80
2022-11-17T05:32:30.892Z,6.70
2022-11-17T05:35:00.207Z,6.70
2022-11-17T05:37:28.266Z,6.70
2022-11-17T05:39:57.149Z,6.60
2022-11-17T05:42:25.438Z,6.70
2022-11-17T05:44:53.460Z,6.70
2022-11-17T05:47:21.774Z,6.70
2022-11-17T05:49:49.712Z,6.70
2022-11-17T05:52:19.015Z,6.70
2022-11-17T05:54:47.109Z,6.70
2022-11-17T05:57:22.298Z,6.70
2022-11-17T05:59:54.397Z,6.70
2022-11-17T06:02:26.380Z,6.60
2022-11-17T06:04:54.455Z,6.70
2022-11-17T06:07:23.988Z,6.70
2022-11-17T06:09:53.006Z,6.70
2022-11-17T06:12:21.276Z,6.70
2022-11-17T06:14:49.320Z,6.70
2022-11-17T06:17:22.794Z,6.70
2022-11-17T06:19:56.117Z,6.60
2022-11-17T06:22:26.668Z,6.70
2022-11-17T06:24:55.356Z,6.60
2022-11-17T06:27:25.478Z,6.60
2022-11-17T06:29:54.872Z,6.60
2022-11-17T06:32:23.414Z,6.60
2022-11-17T06:34:56.185Z,6.60
2022-11-17T06:37:26.132Z,6.60
2022-11-17T06:39:54.190Z,6.60
2022-11-17T06:42:43.331Z,6.60
2022-11-17T06:45:12.617Z,6.60
2022-11-17T06:47:40.847Z,6.50
2022-11-17T06:50:09.567Z,6.40
2022-11-17T06:52:38.995Z,6.40
2022-11-17T06:55:08.869Z,6.40
2022-11-17T06:57:37.040Z,6.40
2022-11-17T07:00:07.103Z,6.40
2022-11-17T07:02:36.754Z,6.30
2022-11-17T07:05:05.204Z,6.30
2022-11-17T07:07:33.321Z,6.20
2022-11-17T07:10:02.830Z,6.20
2022-11-17T07:12:30.809Z,6.20
2022-11-17T07:14:58.863Z,6.20
2022-11-17T07:17:31.954Z,6.20
2022-11-17T07:20:02.021Z,6.10
2022-11-17T07:22:30.296Z,6.10
2022-11-17T07:24:58.361Z,6.10
2022-11-17T07:27:31.092Z,6.10
2022-11-17T07:30:02.363Z,6.10
2022-11-17T07:32:34.717Z,6.10
2022-11-17T07:35:08.634Z,6.00
2022-11-17T07:37:37.062Z,6.00
2022-11-17T07:40:05.631Z,6.00
2022-11-17T07:42:39.382Z,6.00
2022-11-17T07:45:14.289Z,6.00
2022-11-17T07:47:42.823Z,6.00
2022-11-17T07:50:11.441Z,5.90
2022-11-17T07:52:41.556Z,5.90
2022-11-17T07:55:10.288Z,5.80
2022-11-17T07:57:40.023Z,5.80
2022-11-17T08:00:09.472Z,5.80
2022-11-17T08:02:37.576Z,5.80
2022-11-17T08:05:06.253Z,5.80
2022-11-17T08:07:34.377Z,5.80
2022-11-17T08:10:02.622Z,5.80
2022-11-17T08:12:30.584Z,5.80
2022-11-17T08:15:03.436Z,5.70
2022-11-17T08:17:32.259Z,5.70
2022-11-17T08:20:01.482Z,5.70
2022-11-17T08:22:31.513Z,5.70
2022-11-17T08:25:01.236Z,5.70
2022-11-17T08:27:30.258Z,5.70
2022-11-17T08:30:01.330Z,5.60
2022-11-17T08:32:31.114Z,5.60
2022-11-17T08:35:00.455Z,5.60
2022-11-17T08:37:30.779Z,5.60
2022-11-17T08:40:00.670Z,5.60
2022-11-17T08:42:29.804Z,5.50
2022-11-17T08:45:01.016Z,5.60
2022-11-17T08:47:32.007Z,5.50
2022-11-17T08:50:01.551Z,5.50
2022-11-17T08:52:31.213Z,5.40
2022-11-17T08:55:01.077Z,5.40
2022-11-17T08:57:32.456Z,5.40
2022-11-17T09:00:04.935Z,5.40
2022-11-17T09:02:34.714Z,5.40
2022-11-17T09:05:04.115Z,5.40
2022-11-17T09:07:35.848Z,5.40
2022-11-17T09:10:06.530Z,5.40
2022-11-17T09:12:37.546Z,5.40
2022-11-17T09:15:09.789Z,5.40
2022-11-17T09:17:40.786Z,5.40
2022-11-17T09:20:11.016Z,5.40
2022-11-17T09:22:41.086Z,5.40
2022-11-17T09:25:15.675Z,5.40
2022-11-17T09:27:54.100Z,5.40
2022-11-17T09:30:25.970Z,5.40
2022-11-17T09:32:55.506Z,5.50
2022-11-17T09:35:25.252Z,5.50
2022-11-17T09:37:54.765Z,5.50
2022-11-17T09:40:23.815Z,5.50
2022-11-17T09:42:53.074Z,5.50
2022-11-17T09:45:27.579Z,5.50
2022-11-17T09:48:33.597Z,5.50
2022-11-17T09:50:53.464Z,5.50
2022-11-17T09:53:28.789Z,5.40
2022-11-17T09:56:03.095Z,5.50
2022-11-17T09:58:38.799Z,5.50
2022-11-17T10:01:12.691Z,5.50
2022-11-17T10:03:46.153Z,5.50
2022-11-17T10:06:20.487Z,5.50
2022-11-17T10:08:58.246Z,5.50
2022-11-17T10:11:32.912Z,5.50
2022-11-17T10:14:07.782Z,5.50
2022-11-17T10:16:46.822Z,5.50
2022-11-17T10:19:17.848Z,5.50
2022-11-17T10:21:57.000Z,5.60
2022-11-17T10:24:37.392Z,5.50
2022-11-17T10:27:13.875Z,5.50
2022-11-17T10:29:42.159Z,5.60
2022-11-17T10:32:16.459Z,5.60
2022-11-17T10:34:44.707Z,5.60
2022-11-17T10:37:28.022Z,5.70
2022-11-17T10:40:20.590Z,5.60
2022-11-17T10:43:05.786Z,5.60
2022-11-17T10:45:34.858Z,5.60
2022-11-17T10:48:29.255Z,5.60
2022-11-17T10:50:59.867Z,5.60
2022-11-17T10:53:45.093Z,5.60
2022-11-17T10:56:16.974Z,5.60
2022-11-17T10:59:19.480Z,5.60
2022-11-17T11:01:51.833Z,5.70
2022-11-17T11:04:40.582Z,5.70
2022-11-17T11:07:13.602Z,5.70
2022-11-17T11:09:51.488Z,5.80
2022-11-17T11:12:26.101Z,5.80
2022-11-17T11:14:58.691Z,5.80
2022-11-17T11:17:30.548Z,5.80
2022-11-17T11:20:00.876Z,5.80
2022-11-17T11:22:37.924Z,5.80
2022-11-17T11:25:17.746Z,5.80
2022-11-17T11:28:14.458Z,5.80
2022-11-17T11:30:55.834Z,5.90
2022-11-17T11:33:35.470Z,5.90
2022-11-17T11:36:27.808Z,5.90
2022-11-17T11:39:01.537Z,5.90
2022-11-17T11:41:47.837Z,5.90
2022-11-17T11:44:42.255Z,6.00
2022-11-17T11:47:22.938Z,6.00
2022-11-17T11:49:56.404Z,6.10
2022-11-17T11:52:28.990Z,6.10
2022-11-17T11:55:00.885Z,6.00
2022-11-17T11:57:36.134Z,6.00
2022-11-17T12:00:07.363Z,6.00
2022-11-17T12:02:42.571Z,6.00
2022-11-17T12:05:22.122Z,6.00
2022-11-17T12:07:58.354Z,6.00
2022-11-17T12:10:32.909Z,6.00
2022-11-17T12:13:02.157Z,6.00
2022-11-17T12:15:36.164Z,6.00
2022-11-17T12:18:08.433Z,6.00
2022-11-17T12:20:58.022Z,6.00
2022-11-17T12:23:43.625Z,6.00
2022-11-17T12:26:23.259Z,6.00
2022-11-17T12:29:08.326Z,6.10
2022-11-17T12:31:44.693Z,6.10
2022-11-17T12:34:29.046Z,6.10
2022-11-17T12:37:21.845Z,6.00
2022-11-17T12:40:00.498Z,6.10
2022-11-17T12:42:29.700Z,6.10
2022-11-17T12:45:09.033Z,6.00
2022-11-17T12:47:39.410Z,6.10
2022-11-17T12:51:00.472Z,6.10
2022-11-17T12:53:42.737Z,6.00
2022-11-17T12:56:34.139Z,6.00
2022-11-17T12:59:40.367Z,6.00
2022-11-17T13:02:22.694Z,6.00
2022-11-17T13:04:55.196Z,6.00
2022-11-17T13:07:25.874Z,6.10
2022-11-17T13:09:57.020Z,6.10
2022-11-17T13:12:29.050Z,6.10
2022-11-17T13:15:01.210Z,6.10
2022-11-17T13:17:32.690Z,6.10
2022-11-17T13:20:03.948Z,6.20
2022-11-17T13:22:33.626Z,6.20
2022-11-17T13:25:20.542Z,6.20
2022-11-17T13:27:56.006Z,6.20
2022-11-17T13:30:28.585Z,6.20
2022-11-17T13:33:02.069Z,6.10
2022-11-17T13:35:32.605Z,6.10
2022-11-17T13:38:06.383Z,6.10
2022-11-17T13:40:37.428Z,6.10
2022-11-17T13:43:12.250Z,6.20
2022-11-17T13:45:40.708Z,6.20
2022-11-17T13:50:52.917Z,6.20
2022-11-17T13:53:26.362Z,6.10
2022-11-17T13:55:54.929Z,6.10
2022-11-17T13:58:36.280Z,6.10
2022-11-17T14:01:05.397Z,6.10
2022-11-17T14:03:39.093Z,6.10
2022-11-17T14:06:10.370Z,6.20
2022-11-17T14:08:40.244Z,6.10
2022-11-17T14:11:34.923Z,6.20
2022-11-17T14:14:15.114Z,6.10
2022-11-17T14:16:46.302Z,6.20
2022-11-17T14:19:31.892Z,6.20
2022-11-17T14:22:03.377Z,6.20
2022-11-17T14:24:32.754Z,6.20
2022-11-17T14:27:01.739Z,6.20
2022-11-17T14:29:31.572Z,6.20
2022-11-17T14:31:59.950Z,6.20
2022-11-17T14:34:28.226Z,6.20
2022-11-17T14:36:58.030Z,6.20
2022-11-17T14:39:29.556Z,6.20
2022-11-17T14:42:00.285Z,6.20
2022-11-17T14:44:35.474Z,6.20
2022-11-17T14:47:04.691Z,6.20
2022-11-17T14:49:32.890Z,6.20
2022-11-17T14:52:02.421Z,6.20
2022-11-17T14:54:30.616Z,6.20
2022-11-17T14:56:58.913Z,6.20
2022-11-17T14:59:30.068Z,6.30
2022-11-17T15:01:59.823Z,6.20
2022-11-17T15:04:51.214Z,6.20
2022-11-17T15:07:20.252Z,6.20
2022-11-17T15:09:48.509Z,6.20
2022-11-17T15:12:16.700Z,6.20
2022-11-17T15:14:45.692Z,6.20
2022-11-17T15:17:15.762Z,6.20
2022-11-17T15:19:47.482Z,6.20
2022-11-17T15:22:26.683Z,6.20
2022-11-17T15:24:55.482Z,6.20
2022-11-17T15:27:24.919Z,6.20
2022-11-17T15:29:53.632Z,6.10
2022-11-17T15:32:24.893Z,6.20
2022-11-17T15:34:57.580Z,6.20
2022-11-17T15:37:36.412Z,6.20
2022-11-17T15:40:08.022Z,6.20
2022-11-17T15:42:39.087Z,6.10
2022-11-17T15:45:09.646Z,6.20
2022-11-17T15:47:39.496Z,6.20
2022-11-17T15:50:11.005Z,6.10
2022-11-17T15:53:03.073Z,6.10
2022-11-17T15:55:35.255Z,6.10
2022-11-17T15:58:11.818Z,6.10
2022-11-17T16:00:49.911Z,6.10
2022-11-17T16:03:22.677Z,6.20
2022-11-17T16:06:00.165Z,6.20
2022-11-17T16:08:29.003Z,6.20
2022-11-17T16:10:57.546Z,6.20
2022-11-17T16:13:28.795Z,6.30
2022-11-17T16:16:02.388Z,6.30
2022-11-17T16:21:15.882Z,6.20
2022-11-17T16:23:47.322Z,6.30
2022-11-17T16:26:17.231Z,6.20
2022-11-17T16:28:47.975Z,6.20
2022-11-17T16:31:19.759Z,6.20
2022-11-17T16:33:50.656Z,6.20
2022-11-17T16:36:20.315Z,6.20
2022-11-17T16:39:00.713Z,6.20
2022-11-17T16:41:32.376Z,6.20
2022-11-17T16:44:00.526Z,6.20
2022-11-17T16:46:31.001Z,6.20
2022-11-17T16:49:03.237Z,6.20
2022-11-17T16:51:31.706Z,6.20
2022-11-17T16:54:02.025Z,6.30
2022-11-17T16:56:32.204Z,6.30
2022-11-17T16:59:00.696Z,6.30
2022-11-17T17:01:31.444Z,6.30
2022-11-17T17:04:02.515Z,6.30
2022-11-17T17:06:31.229Z,6.30
2022-11-17T17:09:03.093Z,6.30
2022-11-17T17:11:40.684Z,6.30
2022-11-17T17:14:12.694Z,6.30
2022-11-17T17:16:45.444Z,6.30
2022-11-17T17:19:19.977Z,6.30
2022-11-17T17:21:48.332Z,6.30
2022-11-17T17:24:18.750Z,6.30
2022-11-17T17:26:47.058Z,6.20
2022-11-17T17:29:15.683Z,6.20
2022-11-17T17:31:43.876Z,6.30
2022-11-17T17:34:14.813Z,6.30
2022-11-17T17:36:43.074Z,6.30
2022-11-17T17:39:18.076Z,6.30
2022-11-17T17:41:49.247Z,6.30
2022-11-17T17:44:19.818Z,6.30
2022-11-17T17:46:50.536Z,6.40
2022-11-17T17:49:20.255Z,6.40
2022-11-17T17:51:53.408Z,6.40
2022-11-17T17:54:25.250Z,6.40
2022-11-17T17:56:54.009Z,6.40
2022-11-17T17:59:22.385Z,6.40
2022-11-17T18:01:51.649Z,6.40
2022-11-17T18:04:21.497Z,6.40
2022-11-17T18:06:49.731Z,6.40
2022-11-17T18:09:20.515Z,6.30
2022-11-17T18:11:49.600Z,6.30
2022-11-17T18:14:20.593Z,6.40
2022-11-17T18:16:56.351Z,6.40
2022-11-17T18:19:32.576Z,6.40
2022-11-17T18:22:02.564Z,6.30
2022-11-17T18:24:31.109Z,6.30
2022-11-17T18:27:01.775Z,6.30
2022-11-17T18:29:29.972Z,6.30
2022-11-17T18:32:02.917Z,6.40
2022-11-17T18:34:32.932Z,6.40
2022-11-17T18:37:01.145Z,6.30
2022-11-17T18:39:31.522Z,6.30
2022-11-17T18:41:59.762Z,6.30
2022-11-17T18:44:27.909Z,6.30
2022-11-17T18:47:02.349Z,6.30
2022-11-17T18:49:36.683Z,6.30
2022-11-17T18:52:06.306Z,6.30
2022-11-17T18:54:40.980Z,6.30
2022-11-17T18:57:13.782Z,6.30
2022-11-17T18:59:45.382Z,6.30
2022-11-17T19:02:13.738Z,6.30
2022-11-17T19:04:43.277Z,6.30
2022-11-17T19:07:11.783Z,6.30
2022-11-17T19:09:47.259Z,6.30
2022-11-17T19:12:15.414Z,6.30
2022-11-17T19:14:43.704Z,6.20
2022-11-17T19:17:12.188Z,6.30
2022-11-17T19:19:46.346Z,6.30
2022-11-17T19:22:20.421Z,6.30
2022-11-17T19:24:51.931Z,6.30
2022-11-17T19:27:20.345Z,6.30
2022-11-17T19:29:53.343Z,6.30
2022-11-17T19:32:29.501Z,6.30
2022-11-17T19:35:12.972Z,6.30
2022-11-17T19:37:46.061Z,6.30
2022-11-17T19:40:14.646Z,6.30
2022-11-17T19:42:42.803Z,6.30
2022-11-17T19:45:11.042Z,6.30
2022-11-17T19:47:39.155Z,6.30
2022-11-17T19:50:09.624Z,6.30
2022-11-17T19:52:37.673Z,6.30
2022-11-17T19:55:06.322Z,6.30
2022-11-17T19:57:34.624Z,6.30
2022-11-17T20:00:02.848Z,6.30
2022-11-17T20:02:30.891Z,6.30
2022-11-17T20:04:58.821Z,6.30
2022-11-17T20:07:28.212Z,6.30
2022-11-17T20:09:56.323Z,6.30
2022-11-17T20:12:24.271Z,6.30
2022-11-17T20:14:52.390Z,6.30
2022-11-17T20:17:20.393Z,6.30
2022-11-17T20:19:48.353Z,6.30
2022-11-17T20:22:17.444Z,6.30
2022-11-17T20:24:46.837Z,6.30
2022-11-17T20:27:14.839Z,6.30
2022-11-17T20:29:43.206Z,6.30
2022-11-17T20:32:11.830Z,6.40
2022-11-17T20:34:39.876Z,6.30
2022-11-17T20:37:07.883Z,6.40
2022-11-17T20:39:36.329Z,6.40
2022-11-17T20:42:05.698Z,6.40
2022-11-17T20:44:33.637Z,6.30
2022-11-17T20:47:01.667Z,6.30
2022-11-17T20:49:30.298Z,6.30
2022-11-17T20:51:58.357Z,6.30
2022-11-17T20:54:26.649Z,6.30
2022-11-17T20:56:55.389Z,6.30
2022-11-17T20:59:26.351Z,6.30
2022-11-17T21:01:54.569Z,6.20
2022-11-17T21:04:22.600Z,6.30
2022-11-17T21:06:50.559Z,6.30
2022-11-17T21:09:19.106Z,6.30
2022-11-17T21:11:59.074Z,6.30
2022-11-17T21:14:29.367Z,6.30
2022-11-17T21:17:00.362Z,6.30
2022-11-17T21:19:29.058Z,6.30
2022-11-17T21:21:57.109Z,6.30
2022-11-17T21:24:25.989Z,6.30
2022-11-17T21:26:54.574Z,6.30
2022-11-17T21:29:22.897Z,6.30
2022-11-17T21:31:52.295Z,6.30
2022-11-17T21:34:20.407Z,6.30
2022-11-17T21:36:48.440Z,6.30
2022-11-17T21:39:18.545Z,6.30
2022-11-17T21:41:47.050Z,6.30
2022-11-17T21:44:15.510Z,6.40
2022-11-17T21:46:43.505Z,6.30
2022-11-17T21:49:12.882Z,6.30
2022-11-17T21:51:41.407Z,6.30
2022-11-17T21:54:10.710Z,6.40
2022-11-17T21:56:40.285Z,6.30
2022-11-17T21:59:12.304Z,6.40
2022-11-17T22:01:40.963Z,6.30
2022-11-17T22:04:09.111Z,6.30
2022-11-17T22:06:40.077Z,6.30
2022-11-17T22:09:08.219Z,6.30
2022-11-17T22:11:36.898Z,6.20
2022-11-17T22:14:08.100Z,6.20
2022-11-17T22:16:36.980Z,6.20
2022-11-17T22:19:05.811Z,6.20
2022-11-17T22:21:33.961Z,6.10
2022-11-17T22:24:04.463Z,6.10
2022-11-17T22:26:32.714Z,6.10
2022-11-17T22:29:00.849Z,6.10
2022-11-17T22:31:29.137Z,6.20
2022-11-17T22:33:57.195Z,6.20
2022-11-17T22:36:25.346Z,6.20
2022-11-17T22:38:54.005Z,6.10
2022-11-17T22:41:24.401Z,6.10
2022-11-17T22:43:53.417Z,6.10
2022-11-17T22:46:22.805Z,6.10
2022-11-17T22:48:51.149Z,6.10
2022-11-17T22:51:39.611Z,6.10
2022-11-17T22:54:08.837Z,6.10
2022-11-17T22:56:39.232Z,6.10
2022-11-17T22:59:07.250Z,6.00
2022-11-17T23:01:35.383Z,6.00
2022-11-17T23:04:03.462Z,6.00
2022-11-17T23:06:31.429Z,6.00
2022-11-17T23:08:59.425Z,6.00
2022-11-17T23:11:43.140Z,6.00
2022-11-17T23:14:14.172Z,6.00
2022-11-17T23:16:43.226Z,6.00
2022-11-17T23:19:13.728Z,6.00
2022-11-17T23:21:42.121Z,6.10
2022-11-17T23:24:12.803Z,6.10
2022-11-17T23:26:41.092Z,6.10
2022-11-17T23:29:10.243Z,6.10
2022-11-17T23:31:39.998Z,6.10
2022-11-17T23:34:09.984Z,6.10
2022-11-17T23:36:38.030Z,6.00
2022-11-17T23:39:06.074Z,6.00
2022-11-17T23:41:34.053Z,6.00
2022-11-17T23:44:02.188Z,6.00
2022-11-17T23:46:30.576Z,6.00
2022-11-17T23:48:59.926Z,6.10
2022-11-17T23:51:29.767Z,6.10
2022-11-17T23:53:59.774Z,6.10
2022-11-17T23:56:28.119Z,6.10
2022-11-17T23:58:56.103Z,6.10
